sensor_id;sensor_type;location;lat;lon;timestamp;P1;durP1;ratioP1;P2;durP2;ratioP2
14975;SDS011;7584;60.468;25.126;2023-04-24T00:00:14;2.73;;;2.07;;
14975;SDS011;7584;60.468;25.126;2023-04-24T00:02:44;3.77;;;2.73;;
14975;SDS011;7584;60.468;25.126;2023-04-24T00:05:15;2.60;;;2.00;;
14975;SDS011;7584;60.468;25.126;2023-04-24T00:07:42;4.47;;;2.20;;
14975;SDS011;7584;60.468;25.126;2023-04-24T00:10:08;3.13;;;2.30;;
14975;SDS011;7584;60.468;25.126;2023-04-24T00:12:33;4.20;;;2.13;;
14975;SDS011;7584;60.468;25.126;2023-04-24T00:14:59;9.07;;;3.13;;
14975;SDS011;7584;60.468;25.126;2023-04-24T00:17:24;3.47;;;2.67;;
14975;SDS011;7584;60.468;25.126;2023-04-24T00:19:49;4.77;;;2.80;;
14975;SDS011;7584;60.468;25.126;2023-04-24T00:22:23;5.00;;;2.53;;
14975;SDS011;7584;60.468;25.126;2023-04-24T00:24:48;4.63;;;3.00;;
14975;SDS011;7584;60.468;25.126;2023-04-24T00:27:14;3.87;;;2.60;;
14975;SDS011;7584;60.468;25.126;2023-04-24T00:29:39;3.50;;;2.67;;
14975;SDS011;7584;60.468;25.126;2023-04-24T00:32:04;9.60;;;2.80;;
14975;SDS011;7584;60.468;25.126;2023-04-24T00:34:30;3.57;;;3.07;;
14975;SDS011;7584;60.468;25.126;2023-04-24T00:36:57;5.37;;;3.20;;
14975;SDS011;7584;60.468;25.126;2023-04-24T00:39:22;6.33;;;3.40;;
14975;SDS011;7584;60.468;25.126;2023-04-24T00:41:48;6.90;;;2.77;;
14975;SDS011;7584;60.468;25.126;2023-04-24T00:44:13;3.67;;;2.77;;
14975;SDS011;7584;60.468;25.126;2023-04-24T00:46:39;6.80;;;3.10;;
14975;SDS011;7584;60.468;25.126;2023-04-24T00:49:04;8.10;;;3.10;;
14975;SDS011;7584;60.468;25.126;2023-04-24T00:51:31;7.60;;;3.07;;
14975;SDS011;7584;60.468;25.126;2023-04-24T00:53:57;4.27;;;2.73;;
14975;SDS011;7584;60.468;25.126;2023-04-24T00:56:23;6.97;;;3.17;;
14975;SDS011;7584;60.468;25.126;2023-04-24T00:58:48;3.60;;;2.90;;
14975;SDS011;7584;60.468;25.126;2023-04-24T01:01:14;5.87;;;2.60;;
14975;SDS011;7584;60.468;25.126;2023-04-24T01:03:39;5.47;;;3.30;;
14975;SDS011;7584;60.468;25.126;2023-04-24T01:06:05;6.53;;;3.00;;
14975;SDS011;7584;60.468;25.126;2023-04-24T01:08:30;9.07;;;3.60;;
14975;SDS011;7584;60.468;25.126;2023-04-24T01:10:57;6.13;;;2.93;;
14975;SDS011;7584;60.468;25.126;2023-04-24T01:13:22;11.40;;;3.90;;
14975;SDS011;7584;60.468;25.126;2023-04-24T01:15:48;6.70;;;3.00;;
14975;SDS011;7584;60.468;25.126;2023-04-24T01:18:13;6.27;;;3.10;;
14975;SDS011;7584;60.468;25.126;2023-04-24T01:20:39;7.10;;;3.20;;
14975;SDS011;7584;60.468;25.126;2023-04-24T01:23:08;8.10;;;3.30;;
14975;SDS011;7584;60.468;25.126;2023-04-24T01:25:33;3.77;;;2.97;;
14975;SDS011;7584;60.468;25.126;2023-04-24T01:27:59;7.53;;;2.90;;
14975;SDS011;7584;60.468;25.126;2023-04-24T01:30:25;4.90;;;3.50;;
14975;SDS011;7584;60.468;25.126;2023-04-24T01:32:50;5.20;;;3.20;;
14975;SDS011;7584;60.468;25.126;2023-04-24T01:35:16;6.43;;;3.40;;
14975;SDS011;7584;60.468;25.126;2023-04-24T01:37:41;8.03;;;3.57;;
14975;SDS011;7584;60.468;25.126;2023-04-24T01:40:07;5.57;;;3.10;;
14975;SDS011;7584;60.468;25.126;2023-04-24T01:42:32;4.50;;;3.00;;
14975;SDS011;7584;60.468;25.126;2023-04-24T01:44:58;6.30;;;3.43;;
14975;SDS011;7584;60.468;25.126;2023-04-24T01:47:24;5.97;;;3.20;;
14975;SDS011;7584;60.468;25.126;2023-04-24T01:49:49;5.73;;;3.57;;
14975;SDS011;7584;60.468;25.126;2023-04-24T01:52:15;7.00;;;3.40;;
14975;SDS011;7584;60.468;25.126;2023-04-24T01:54:41;5.40;;;3.43;;
14975;SDS011;7584;60.468;25.126;2023-04-24T01:57:06;7.60;;;3.23;;
14975;SDS011;7584;60.468;25.126;2023-04-24T01:59:32;8.47;;;3.50;;
14975;SDS011;7584;60.468;25.126;2023-04-24T02:01:58;10.87;;;3.83;;
14975;SDS011;7584;60.468;25.126;2023-04-24T02:04:23;6.90;;;3.07;;
14975;SDS011;7584;60.468;25.126;2023-04-24T02:06:48;9.17;;;3.70;;
14975;SDS011;7584;60.468;25.126;2023-04-24T02:09:14;7.30;;;3.43;;
14975;SDS011;7584;60.468;25.126;2023-04-24T02:11:39;5.77;;;3.57;;
14975;SDS011;7584;60.468;25.126;2023-04-24T02:14:04;9.07;;;3.53;;
14975;SDS011;7584;60.468;25.126;2023-04-24T02:16:30;7.83;;;3.70;;
14975;SDS011;7584;60.468;25.126;2023-04-24T02:18:58;5.90;;;3.60;;
14975;SDS011;7584;60.468;25.126;2023-04-24T02:21:23;9.07;;;3.70;;
14975;SDS011;7584;60.468;25.126;2023-04-24T02:23:48;7.20;;;3.50;;
14975;SDS011;7584;60.468;25.126;2023-04-24T02:26:13;4.70;;;3.13;;
14975;SDS011;7584;60.468;25.126;2023-04-24T02:28:39;6.80;;;3.77;;
14975;SDS011;7584;60.468;25.126;2023-04-24T02:31:04;8.27;;;3.10;;
14975;SDS011;7584;60.468;25.126;2023-04-24T02:33:31;5.90;;;3.77;;
14975;SDS011;7584;60.468;25.126;2023-04-24T02:35:56;5.47;;;2.87;;
14975;SDS011;7584;60.468;25.126;2023-04-24T02:38:21;8.10;;;3.50;;
14975;SDS011;7584;60.468;25.126;2023-04-24T02:40:47;4.83;;;3.47;;
14975;SDS011;7584;60.468;25.126;2023-04-24T02:43:12;7.07;;;3.33;;
14975;SDS011;7584;60.468;25.126;2023-04-24T02:45:37;5.97;;;3.43;;
14975;SDS011;7584;60.468;25.126;2023-04-24T02:48:03;11.77;;;3.70;;
14975;SDS011;7584;60.468;25.126;2023-04-24T02:50:28;7.80;;;3.37;;
14975;SDS011;7584;60.468;25.126;2023-04-24T02:52:54;6.20;;;3.10;;
14975;SDS011;7584;60.468;25.126;2023-04-24T02:55:19;8.23;;;3.00;;
14975;SDS011;7584;60.468;25.126;2023-04-24T02:57:45;7.73;;;3.40;;
14975;SDS011;7584;60.468;25.126;2023-04-24T03:00:10;12.20;;;3.43;;
14975;SDS011;7584;60.468;25.126;2023-04-24T03:02:36;7.60;;;3.43;;
14975;SDS011;7584;60.468;25.126;2023-04-24T03:05:01;6.93;;;3.10;;
14975;SDS011;7584;60.468;25.126;2023-04-24T03:07:27;8.17;;;3.77;;
14975;SDS011;7584;60.468;25.126;2023-04-24T03:09:52;8.27;;;3.13;;
14975;SDS011;7584;60.468;25.126;2023-04-24T03:12:17;10.13;;;3.50;;
14975;SDS011;7584;60.468;25.126;2023-04-24T03:14:43;8.93;;;3.40;;
14975;SDS011;7584;60.468;25.126;2023-04-24T03:17:08;7.13;;;3.50;;
14975;SDS011;7584;60.468;25.126;2023-04-24T03:19:34;7.13;;;3.50;;
14975;SDS011;7584;60.468;25.126;2023-04-24T03:21:59;7.97;;;3.43;;
14975;SDS011;7584;60.468;25.126;2023-04-24T03:24:26;11.53;;;4.07;;
14975;SDS011;7584;60.468;25.126;2023-04-24T03:26:52;5.70;;;3.33;;
14975;SDS011;7584;60.468;25.126;2023-04-24T03:29:18;4.93;;;3.37;;
14975;SDS011;7584;60.468;25.126;2023-04-24T03:31:43;5.73;;;2.77;;
14975;SDS011;7584;60.468;25.126;2023-04-24T03:34:08;8.53;;;3.63;;
14975;SDS011;7584;60.468;25.126;2023-04-24T03:36:34;7.87;;;3.37;;
14975;SDS011;7584;60.468;25.126;2023-04-24T03:39:00;8.37;;;3.47;;
14975;SDS011;7584;60.468;25.126;2023-04-24T03:41:26;7.83;;;3.97;;
14975;SDS011;7584;60.468;25.126;2023-04-24T03:43:51;8.10;;;3.50;;
14975;SDS011;7584;60.468;25.126;2023-04-24T03:46:16;6.47;;;3.60;;
14975;SDS011;7584;60.468;25.126;2023-04-24T03:48:42;4.73;;;3.13;;
14975;SDS011;7584;60.468;25.126;2023-04-24T03:51:07;8.03;;;3.70;;
14975;SDS011;7584;60.468;25.126;2023-04-24T03:53:32;6.83;;;3.67;;
14975;SDS011;7584;60.468;25.126;2023-04-24T03:55:57;5.40;;;3.63;;
14975;SDS011;7584;60.468;25.126;2023-04-24T03:58:23;6.53;;;4.10;;
14975;SDS011;7584;60.468;25.126;2023-04-24T04:00:48;5.63;;;3.37;;
14975;SDS011;7584;60.468;25.126;2023-04-24T04:03:14;7.43;;;4.13;;
14975;SDS011;7584;60.468;25.126;2023-04-24T04:05:40;6.13;;;3.63;;
14975;SDS011;7584;60.468;25.126;2023-04-24T04:08:05;6.50;;;3.63;;
14975;SDS011;7584;60.468;25.126;2023-04-24T04:10:30;6.57;;;3.77;;
14975;SDS011;7584;60.468;25.126;2023-04-24T04:12:56;8.00;;;3.60;;
14975;SDS011;7584;60.468;25.126;2023-04-24T04:15:21;7.07;;;3.83;;
14975;SDS011;7584;60.468;25.126;2023-04-24T04:17:46;6.43;;;3.93;;
14975;SDS011;7584;60.468;25.126;2023-04-24T04:20:12;9.00;;;4.17;;
14975;SDS011;7584;60.468;25.126;2023-04-24T04:22:37;8.77;;;4.57;;
14975;SDS011;7584;60.468;25.126;2023-04-24T04:25:03;8.13;;;4.27;;
14975;SDS011;7584;60.468;25.126;2023-04-24T04:27:29;9.20;;;4.50;;
14975;SDS011;7584;60.468;25.126;2023-04-24T04:29:57;7.90;;;4.57;;
14975;SDS011;7584;60.468;25.126;2023-04-24T04:32:22;6.97;;;4.77;;
14975;SDS011;7584;60.468;25.126;2023-04-24T04:34:47;10.17;;;5.63;;
14975;SDS011;7584;60.468;25.126;2023-04-24T04:37:14;9.33;;;5.43;;
14975;SDS011;7584;60.468;25.126;2023-04-24T04:39:39;7.73;;;5.60;;
14975;SDS011;7584;60.468;25.126;2023-04-24T04:42:05;9.27;;;5.97;;
14975;SDS011;7584;60.468;25.126;2023-04-24T04:44:31;10.33;;;6.70;;
14975;SDS011;7584;60.468;25.126;2023-04-24T04:46:57;13.57;;;7.63;;
14975;SDS011;7584;60.468;25.126;2023-04-24T04:49:22;11.57;;;7.67;;
14975;SDS011;7584;60.468;25.126;2023-04-24T04:51:48;8.07;;;6.80;;
14975;SDS011;7584;60.468;25.126;2023-04-24T04:54:14;12.07;;;7.83;;
14975;SDS011;7584;60.468;25.126;2023-04-24T04:56:39;13.57;;;8.20;;
14975;SDS011;7584;60.468;25.126;2023-04-24T04:59:05;11.30;;;7.07;;
14975;SDS011;7584;60.468;25.126;2023-04-24T05:01:31;12.90;;;7.90;;
14975;SDS011;7584;60.468;25.126;2023-04-24T05:03:56;11.67;;;8.60;;
14975;SDS011;7584;60.468;25.126;2023-04-24T05:06:21;11.40;;;8.27;;
14975;SDS011;7584;60.468;25.126;2023-04-24T05:08:47;17.27;;;9.50;;
14975;SDS011;7584;60.468;25.126;2023-04-24T05:11:13;13.33;;;9.30;;
14975;SDS011;7584;60.468;25.126;2023-04-24T05:13:38;14.43;;;8.90;;
14975;SDS011;7584;60.468;25.126;2023-04-24T05:16:04;16.30;;;10.73;;
14975;SDS011;7584;60.468;25.126;2023-04-24T05:18:30;13.87;;;10.53;;
14975;SDS011;7584;60.468;25.126;2023-04-24T05:20:55;14.00;;;10.30;;
14975;SDS011;7584;60.468;25.126;2023-04-24T05:23:20;15.33;;;10.43;;
14975;SDS011;7584;60.468;25.126;2023-04-24T05:25:46;13.30;;;10.87;;
14975;SDS011;7584;60.468;25.126;2023-04-24T05:28:11;14.70;;;10.07;;
14975;SDS011;7584;60.468;25.126;2023-04-24T05:30:36;14.83;;;10.47;;
14975;SDS011;7584;60.468;25.126;2023-04-24T05:33:02;13.43;;;11.10;;
14975;SDS011;7584;60.468;25.126;2023-04-24T05:35:27;16.00;;;11.20;;
14975;SDS011;7584;60.468;25.126;2023-04-24T05:37:53;15.47;;;12.13;;
14975;SDS011;7584;60.468;25.126;2023-04-24T05:40:18;13.53;;;11.07;;
14975;SDS011;7584;60.468;25.126;2023-04-24T05:42:43;14.13;;;10.70;;
14975;SDS011;7584;60.468;25.126;2023-04-24T05:45:08;15.03;;;10.87;;
14975;SDS011;7584;60.468;25.126;2023-04-24T05:47:36;17.70;;;11.10;;
14975;SDS011;7584;60.468;25.126;2023-04-24T05:50:02;13.90;;;10.03;;
14975;SDS011;7584;60.468;25.126;2023-04-24T05:52:27;16.47;;;10.03;;
14975;SDS011;7584;60.468;25.126;2023-04-24T05:54:52;12.63;;;9.80;;
14975;SDS011;7584;60.468;25.126;2023-04-24T05:57:18;12.77;;;9.53;;
14975;SDS011;7584;60.468;25.126;2023-04-24T05:59:43;15.80;;;9.20;;
14975;SDS011;7584;60.468;25.126;2023-04-24T06:02:08;12.63;;;9.20;;
14975;SDS011;7584;60.468;25.126;2023-04-24T06:04:34;12.43;;;9.00;;
14975;SDS011;7584;60.468;25.126;2023-04-24T06:06:59;11.57;;;9.13;;
14975;SDS011;7584;60.468;25.126;2023-04-24T06:09:25;15.33;;;9.20;;
14975;SDS011;7584;60.468;25.126;2023-04-24T06:11:50;11.77;;;8.43;;
14975;SDS011;7584;60.468;25.126;2023-04-24T06:14:21;12.90;;;9.47;;
14975;SDS011;7584;60.468;25.126;2023-04-24T06:16:47;13.00;;;8.90;;
14975;SDS011;7584;60.468;25.126;2023-04-24T06:19:12;11.77;;;7.87;;
14975;SDS011;7584;60.468;25.126;2023-04-24T06:21:37;10.93;;;8.27;;
14975;SDS011;7584;60.468;25.126;2023-04-24T06:24:02;11.23;;;8.10;;
14975;SDS011;7584;60.468;25.126;2023-04-24T06:26:29;11.20;;;7.70;;
14975;SDS011;7584;60.468;25.126;2023-04-24T06:28:54;9.70;;;8.17;;
14975;SDS011;7584;60.468;25.126;2023-04-24T06:31:20;9.57;;;7.93;;
14975;SDS011;7584;60.468;25.126;2023-04-24T06:33:45;10.07;;;7.67;;
14975;SDS011;7584;60.468;25.126;2023-04-24T06:36:12;11.33;;;7.87;;
14975;SDS011;7584;60.468;25.126;2023-04-24T06:38:37;9.33;;;7.23;;
14975;SDS011;7584;60.468;25.126;2023-04-24T06:41:02;10.53;;;7.40;;
14975;SDS011;7584;60.468;25.126;2023-04-24T06:43:30;8.73;;;7.00;;
14975;SDS011;7584;60.468;25.126;2023-04-24T06:45:55;7.20;;;6.27;;
14975;SDS011;7584;60.468;25.126;2023-04-24T06:48:21;6.57;;;5.90;;
14975;SDS011;7584;60.468;25.126;2023-04-24T06:50:46;7.10;;;6.30;;
14975;SDS011;7584;60.468;25.126;2023-04-24T06:53:11;8.77;;;6.27;;
14975;SDS011;7584;60.468;25.126;2023-04-24T06:55:39;8.68;;;5.68;;
14975;SDS011;7584;60.468;25.126;2023-04-24T06:58:04;7.65;;;6.15;;
14975;SDS011;7584;60.468;25.126;2023-04-24T07:00:31;10.32;;;6.57;;
14975;SDS011;7584;60.468;25.126;2023-04-24T07:02:56;8.43;;;6.20;;
14975;SDS011;7584;60.468;25.126;2023-04-24T07:05:22;8.45;;;6.53;;
14975;SDS011;7584;60.468;25.126;2023-04-24T07:07:48;7.57;;;6.13;;
14975;SDS011;7584;60.468;25.126;2023-04-24T07:10:14;10.00;;;6.15;;
14975;SDS011;7584;60.468;25.126;2023-04-24T07:12:40;7.20;;;6.00;;
14975;SDS011;7584;60.468;25.126;2023-04-24T07:15:05;5.90;;;5.30;;
14975;SDS011;7584;60.468;25.126;2023-04-24T07:17:31;6.68;;;5.82;;
14975;SDS011;7584;60.468;25.126;2023-04-24T07:19:56;7.18;;;5.57;;
14975;SDS011;7584;60.468;25.126;2023-04-24T07:22:21;5.55;;;4.75;;
14975;SDS011;7584;60.468;25.126;2023-04-24T07:24:47;7.03;;;5.30;;
14975;SDS011;7584;60.468;25.126;2023-04-24T07:27:13;7.22;;;5.13;;
14975;SDS011;7584;60.468;25.126;2023-04-24T07:29:39;6.82;;;5.45;;
14975;SDS011;7584;60.468;25.126;2023-04-24T07:32:05;8.73;;;5.43;;
14975;SDS011;7584;60.468;25.126;2023-04-24T07:34:31;7.05;;;4.53;;
14975;SDS011;7584;60.468;25.126;2023-04-24T07:36:56;5.07;;;4.18;;
14975;SDS011;7584;60.468;25.126;2023-04-24T07:39:21;6.10;;;4.68;;
14975;SDS011;7584;60.468;25.126;2023-04-24T07:41:47;6.18;;;4.65;;
14975;SDS011;7584;60.468;25.126;2023-04-24T07:44:12;4.60;;;4.05;;
14975;SDS011;7584;60.468;25.126;2023-04-24T07:46:37;4.80;;;3.30;;
14975;SDS011;7584;60.468;25.126;2023-04-24T07:49:03;4.65;;;3.70;;
14975;SDS011;7584;60.468;25.126;2023-04-24T07:51:29;6.18;;;4.40;;
14975;SDS011;7584;60.468;25.126;2023-04-24T07:53:55;3.75;;;3.45;;
14975;SDS011;7584;60.468;25.126;2023-04-24T07:56:20;6.35;;;3.53;;
14975;SDS011;7584;60.468;25.126;2023-04-24T07:58:46;3.20;;;2.33;;
14975;SDS011;7584;60.468;25.126;2023-04-24T08:01:11;2.58;;;2.38;;
14975;SDS011;7584;60.468;25.126;2023-04-24T08:03:36;4.22;;;2.50;;
14975;SDS011;7584;60.468;25.126;2023-04-24T08:06:02;3.35;;;2.35;;
14975;SDS011;7584;60.468;25.126;2023-04-24T08:08:27;5.05;;;2.40;;
14975;SDS011;7584;60.468;25.126;2023-04-24T08:10:53;4.32;;;2.03;;
14975;SDS011;7584;60.468;25.126;2023-04-24T08:13:18;4.38;;;2.70;;
14975;SDS011;7584;60.468;25.126;2023-04-24T08:15:43;5.57;;;2.85;;
14975;SDS011;7584;60.468;25.126;2023-04-24T08:18:09;3.60;;;3.10;;
14975;SDS011;7584;60.468;25.126;2023-04-24T08:20:36;5.05;;;2.88;;
14975;SDS011;7584;60.468;25.126;2023-04-24T08:23:02;5.22;;;2.80;;
14975;SDS011;7584;60.468;25.126;2023-04-24T08:25:27;3.38;;;2.65;;
14975;SDS011;7584;60.468;25.126;2023-04-24T08:27:52;3.72;;;2.65;;
14975;SDS011;7584;60.468;25.126;2023-04-24T08:30:18;4.25;;;2.95;;
14975;SDS011;7584;60.468;25.126;2023-04-24T08:32:43;4.25;;;2.60;;
14975;SDS011;7584;60.468;25.126;2023-04-24T08:35:09;5.57;;;3.03;;
14975;SDS011;7584;60.468;25.126;2023-04-24T08:37:34;3.65;;;2.50;;
14975;SDS011;7584;60.468;25.126;2023-04-24T08:40:00;3.25;;;2.70;;
14975;SDS011;7584;60.468;25.126;2023-04-24T08:42:26;6.07;;;3.05;;
14975;SDS011;7584;60.468;25.126;2023-04-24T08:44:53;2.58;;;2.38;;
14975;SDS011;7584;60.468;25.126;2023-04-24T08:47:19;3.65;;;2.80;;
14975;SDS011;7584;60.468;25.126;2023-04-24T08:49:45;3.42;;;2.50;;
14975;SDS011;7584;60.468;25.126;2023-04-24T08:52:12;5.65;;;2.70;;
14975;SDS011;7584;60.468;25.126;2023-04-24T08:54:38;4.80;;;2.80;;
14975;SDS011;7584;60.468;25.126;2023-04-24T08:57:04;4.38;;;2.90;;
14975;SDS011;7584;60.468;25.126;2023-04-24T08:59:32;5.38;;;2.83;;
14975;SDS011;7584;60.468;25.126;2023-04-24T09:01:59;3.17;;;2.60;;
14975;SDS011;7584;60.468;25.126;2023-04-24T09:04:25;4.05;;;2.60;;
14975;SDS011;7584;60.468;25.126;2023-04-24T09:06:51;4.03;;;2.42;;
14975;SDS011;7584;60.468;25.126;2023-04-24T09:09:16;3.47;;;2.70;;
14975;SDS011;7584;60.468;25.126;2023-04-24T09:11:43;3.70;;;2.88;;
14975;SDS011;7584;60.468;25.126;2023-04-24T09:14:09;10.35;;;2.97;;
14975;SDS011;7584;60.468;25.126;2023-04-24T09:16:34;5.00;;;2.50;;
14975;SDS011;7584;60.468;25.126;2023-04-24T09:19:00;2.55;;;1.92;;
14975;SDS011;7584;60.468;25.126;2023-04-24T09:21:26;2.22;;;2.03;;
14975;SDS011;7584;60.468;25.126;2023-04-24T09:24:15;2.70;;;2.10;;
14975;SDS011;7584;60.468;25.126;2023-04-24T09:26:42;2.70;;;1.95;;
14975;SDS011;7584;60.468;25.126;2023-04-24T09:29:08;3.65;;;2.00;;
14975;SDS011;7584;60.468;25.126;2023-04-24T09:31:38;3.22;;;2.05;;
14975;SDS011;7584;60.468;25.126;2023-04-24T09:34:04;3.13;;;2.35;;
14975;SDS011;7584;60.468;25.126;2023-04-24T09:36:33;2.03;;;1.83;;
14975;SDS011;7584;60.468;25.126;2023-04-24T09:38:59;3.40;;;2.03;;
14975;SDS011;7584;60.468;25.126;2023-04-24T09:41:25;2.20;;;1.73;;
14975;SDS011;7584;60.468;25.126;2023-04-24T09:43:50;2.88;;;1.70;;
14975;SDS011;7584;60.468;25.126;2023-04-24T09:46:15;4.47;;;2.05;;
14975;SDS011;7584;60.468;25.126;2023-04-24T09:48:43;2.85;;;2.00;;
14975;SDS011;7584;60.468;25.126;2023-04-24T09:51:08;2.35;;;1.77;;
14975;SDS011;7584;60.468;25.126;2023-04-24T09:53:36;4.05;;;1.90;;
14975;SDS011;7584;60.468;25.126;2023-04-24T09:56:03;2.10;;;1.55;;
14975;SDS011;7584;60.468;25.126;2023-04-24T09:58:31;2.03;;;1.60;;
14975;SDS011;7584;60.468;25.126;2023-04-24T10:00:57;2.30;;;1.45;;
14975;SDS011;7584;60.468;25.126;2023-04-24T10:03:25;1.65;;;1.50;;
14975;SDS011;7584;60.468;25.126;2023-04-24T10:05:52;2.47;;;1.77;;
14975;SDS011;7584;60.468;25.126;2023-04-24T10:08:17;1.55;;;1.40;;
14975;SDS011;7584;60.468;25.126;2023-04-24T10:10:44;2.25;;;1.60;;
14975;SDS011;7584;60.468;25.126;2023-04-24T10:13:10;2.70;;;1.40;;
14975;SDS011;7584;60.468;25.126;2023-04-24T10:15:36;2.40;;;1.42;;
14975;SDS011;7584;60.468;25.126;2023-04-24T10:18:01;2.80;;;1.52;;
14975;SDS011;7584;60.468;25.126;2023-04-24T10:20:29;1.65;;;1.50;;
14975;SDS011;7584;60.468;25.126;2023-04-24T10:22:56;2.17;;;1.48;;
14975;SDS011;7584;60.468;25.126;2023-04-24T10:25:22;1.85;;;1.55;;
14975;SDS011;7584;60.468;25.126;2023-04-24T10:27:49;1.98;;;1.38;;
14975;SDS011;7584;60.468;25.126;2023-04-24T10:30:15;3.33;;;1.70;;
14975;SDS011;7584;60.468;25.126;2023-04-24T10:32:40;1.42;;;1.20;;
14975;SDS011;7584;60.468;25.126;2023-04-24T10:35:06;2.15;;;1.70;;
14975;SDS011;7584;60.468;25.126;2023-04-24T10:37:35;2.50;;;1.48;;
14975;SDS011;7584;60.468;25.126;2023-04-24T10:40:01;1.58;;;1.20;;
14975;SDS011;7584;60.468;25.126;2023-04-24T10:42:27;3.65;;;1.42;;
14975;SDS011;7584;60.468;25.126;2023-04-24T10:44:52;2.55;;;1.48;;
14975;SDS011;7584;60.468;25.126;2023-04-24T10:47:19;1.25;;;1.10;;
14975;SDS011;7584;60.468;25.126;2023-04-24T10:49:44;2.15;;;1.40;;
14975;SDS011;7584;60.468;25.126;2023-04-24T10:52:10;2.10;;;1.13;;
14975;SDS011;7584;60.468;25.126;2023-04-24T10:59:45;1.48;;;1.13;;
14975;SDS011;7584;60.468;25.126;2023-04-24T11:02:11;4.22;;;1.05;;
14975;SDS011;7584;60.468;25.126;2023-04-24T11:04:40;1.42;;;1.00;;
14975;SDS011;7584;60.468;25.126;2023-04-24T11:07:06;1.33;;;1.08;;
14975;SDS011;7584;60.468;25.126;2023-04-24T11:09:32;1.35;;;1.17;;
14975;SDS011;7584;60.468;25.126;2023-04-24T11:12:04;1.98;;;1.10;;
14975;SDS011;7584;60.468;25.126;2023-04-24T11:17:34;1.10;;;0.90;;
14975;SDS011;7584;60.468;25.126;2023-04-24T11:20:05;1.92;;;1.00;;
14975;SDS011;7584;60.468;25.126;2023-04-24T11:22:34;1.23;;;1.00;;
14975;SDS011;7584;60.468;25.126;2023-04-24T11:25:00;1.35;;;0.80;;
14975;SDS011;7584;60.468;25.126;2023-04-24T11:27:29;1.88;;;1.00;;
14975;SDS011;7584;60.468;25.126;2023-04-24T11:34:52;1.58;;;0.88;;
14975;SDS011;7584;60.468;25.126;2023-04-24T11:37:18;0.60;;;0.60;;
14975;SDS011;7584;60.468;25.126;2023-04-24T11:39:43;0.60;;;0.50;;
14975;SDS011;7584;60.468;25.126;2023-04-24T11:42:08;2.58;;;0.70;;
14975;SDS011;7584;60.468;25.126;2023-04-24T11:44:34;0.80;;;0.55;;
14975;SDS011;7584;60.468;25.126;2023-04-24T11:46:59;1.45;;;0.40;;
14975;SDS011;7584;60.468;25.126;2023-04-24T11:49:25;1.35;;;0.60;;
14975;SDS011;7584;60.468;25.126;2023-04-24T11:51:54;0.70;;;0.70;;
14975;SDS011;7584;60.468;25.126;2023-04-24T11:54:19;1.58;;;0.90;;
14975;SDS011;7584;60.468;25.126;2023-04-24T11:56:46;0.60;;;0.60;;
14975;SDS011;7584;60.468;25.126;2023-04-24T11:59:11;1.38;;;0.80;;
14975;SDS011;7584;60.468;25.126;2023-04-24T12:01:46;1.20;;;0.70;;
14975;SDS011;7584;60.468;25.126;2023-04-24T12:04:11;2.15;;;1.13;;
14975;SDS011;7584;60.468;25.126;2023-04-24T12:06:37;0.65;;;0.60;;
14975;SDS011;7584;60.468;25.126;2023-04-24T12:09:02;0.82;;;0.70;;
14975;SDS011;7584;60.468;25.126;2023-04-24T12:11:28;1.65;;;0.80;;
14975;SDS011;7584;60.468;25.126;2023-04-24T12:13:53;1.20;;;0.80;;
14975;SDS011;7584;60.468;25.126;2023-04-24T12:16:19;2.10;;;0.77;;
14975;SDS011;7584;60.468;25.126;2023-04-24T12:18:44;1.73;;;0.75;;
14975;SDS011;7584;60.468;25.126;2023-04-24T12:21:17;1.17;;;0.93;;
14975;SDS011;7584;60.468;25.126;2023-04-24T12:23:46;3.13;;;0.90;;
14975;SDS011;7584;60.468;25.126;2023-04-24T12:26:20;5.20;;;1.35;;
14975;SDS011;7584;60.468;25.126;2023-04-24T12:28:47;1.27;;;0.93;;
14975;SDS011;7584;60.468;25.126;2023-04-24T12:31:12;1.10;;;0.90;;
14975;SDS011;7584;60.468;25.126;2023-04-24T12:33:37;0.98;;;0.80;;
14975;SDS011;7584;60.468;25.126;2023-04-24T12:36:03;0.98;;;0.77;;
14975;SDS011;7584;60.468;25.126;2023-04-24T12:38:30;2.95;;;0.82;;
14975;SDS011;7584;60.468;25.126;2023-04-24T12:41:06;2.55;;;0.75;;
14975;SDS011;7584;60.468;25.126;2023-04-24T12:43:31;1.05;;;0.88;;
14975;SDS011;7584;60.468;25.126;2023-04-24T12:45:57;1.33;;;0.70;;
14975;SDS011;7584;60.468;25.126;2023-04-24T12:48:22;6.50;;;0.90;;
14975;SDS011;7584;60.468;25.126;2023-04-24T12:50:48;1.38;;;0.90;;
14975;SDS011;7584;60.468;25.126;2023-04-24T12:53:14;1.80;;;0.70;;
14975;SDS011;7584;60.468;25.126;2023-04-24T12:55:39;14.27;;;1.65;;
14975;SDS011;7584;60.468;25.126;2023-04-24T12:58:05;2.47;;;0.68;;
14975;SDS011;7584;60.468;25.126;2023-04-24T13:00:30;2.88;;;1.08;;
14975;SDS011;7584;60.468;25.126;2023-04-24T13:02:55;2.67;;;0.90;;
14975;SDS011;7584;60.468;25.126;2023-04-24T13:05:21;3.08;;;1.20;;
14975;SDS011;7584;60.468;25.126;2023-04-24T13:07:46;1.38;;;0.70;;
14975;SDS011;7584;60.468;25.126;2023-04-24T13:10:11;0.90;;;0.70;;
14975;SDS011;7584;60.468;25.126;2023-04-24T13:12:38;1.42;;;0.60;;
14975;SDS011;7584;60.468;25.126;2023-04-24T13:15:03;0.70;;;0.68;;
14975;SDS011;7584;60.468;25.126;2023-04-24T13:17:29;1.33;;;0.93;;
14975;SDS011;7584;60.468;25.126;2023-04-24T13:19:54;3.70;;;0.70;;
14975;SDS011;7584;60.468;25.126;2023-04-24T13:22:20;1.17;;;0.70;;
14975;SDS011;7584;60.468;25.126;2023-04-24T13:24:45;2.13;;;0.90;;
14975;SDS011;7584;60.468;25.126;2023-04-24T13:27:10;5.63;;;0.95;;
14975;SDS011;7584;60.468;25.126;2023-04-24T13:29:36;0.93;;;0.70;;
14975;SDS011;7584;60.468;25.126;2023-04-24T13:32:02;1.70;;;0.80;;
14975;SDS011;7584;60.468;25.126;2023-04-24T13:34:27;13.98;;;1.60;;
14975;SDS011;7584;60.468;25.126;2023-04-24T13:36:53;1.35;;;0.60;;
14975;SDS011;7584;60.468;25.126;2023-04-24T13:39:19;1.45;;;0.60;;
14975;SDS011;7584;60.468;25.126;2023-04-24T13:41:44;2.05;;;0.75;;
14975;SDS011;7584;60.468;25.126;2023-04-24T13:44:12;0.80;;;0.70;;
14975;SDS011;7584;60.468;25.126;2023-04-24T13:46:37;0.70;;;0.63;;
14975;SDS011;7584;60.468;25.126;2023-04-24T13:49:02;0.85;;;0.70;;
14975;SDS011;7584;60.468;25.126;2023-04-24T13:51:28;1.23;;;0.73;;
14975;SDS011;7584;60.468;25.126;2023-04-24T13:53:54;2.15;;;0.70;;
14975;SDS011;7584;60.468;25.126;2023-04-24T13:56:20;1.15;;;0.32;;
14975;SDS011;7584;60.468;25.126;2023-04-24T13:58:46;1.25;;;0.52;;
14975;SDS011;7584;60.468;25.126;2023-04-24T14:01:11;1.13;;;0.45;;
14975;SDS011;7584;60.468;25.126;2023-04-24T14:03:37;4.40;;;0.55;;
14975;SDS011;7584;60.468;25.126;2023-04-24T14:06:02;0.95;;;0.43;;
14975;SDS011;7584;60.468;25.126;2023-04-24T14:08:28;0.82;;;0.63;;
14975;SDS011;7584;60.468;25.126;2023-04-24T14:10:53;15.95;;;1.55;;
14975;SDS011;7584;60.468;25.126;2023-04-24T14:13:18;0.55;;;0.40;;
14975;SDS011;7584;60.468;25.126;2023-04-24T14:15:44;2.28;;;0.70;;
14975;SDS011;7584;60.468;25.126;2023-04-24T14:18:09;0.98;;;0.63;;
14975;SDS011;7584;60.468;25.126;2023-04-24T14:20:34;1.58;;;0.50;;
14975;SDS011;7584;60.468;25.126;2023-04-24T14:23:00;4.07;;;1.10;;
14975;SDS011;7584;60.468;25.126;2023-04-24T14:25:25;2.40;;;1.08;;
14975;SDS011;7584;60.468;25.126;2023-04-24T14:27:51;3.08;;;1.20;;
14975;SDS011;7584;60.468;25.126;2023-04-24T14:30:16;3.47;;;1.08;;
14975;SDS011;7584;60.468;25.126;2023-04-24T14:32:42;3.38;;;1.60;;
14975;SDS011;7584;60.468;25.126;2023-04-24T14:35:07;4.07;;;2.28;;
14975;SDS011;7584;60.468;25.126;2023-04-24T14:37:33;2.50;;;2.10;;
14975;SDS011;7584;60.468;25.126;2023-04-24T14:39:58;5.15;;;2.00;;
14975;SDS011;7584;60.468;25.126;2023-04-24T14:42:24;3.85;;;2.20;;
14975;SDS011;7584;60.468;25.126;2023-04-24T14:44:49;4.85;;;2.10;;
14975;SDS011;7584;60.468;25.126;2023-04-24T14:47:15;4.78;;;2.25;;
14975;SDS011;7584;60.468;25.126;2023-04-24T14:49:42;3.90;;;2.40;;